Terminal Aerodrome Forecast
Issued by NWS

Home | Current Version | Previous Version | Text Only | Print | Product List | Glossary On
Versions: 1 2 3 4 5 6 7 8 9 10 11 12 13 14 15 16 17 18 19 20 21 22 23 24 25 26 27 28 29 30 31 32 33 34 35 36 37 38 39 40 41 42 43 44 45 46
000
FTUS46 KEKA 160702 CCA
TAFACV
TAF COR
KACV 160702Z 1607/1706 36008KT 6SM BR SCT012 BKN020
     FM161700 36009G16KT P6SM FEW006 SCT012 SCT200
     FM161900 36014G21KT P6SM SCT200
     FM170500 36008KT P6SM FEW200=

USA.gov is the U.S. government's official web portal to all federal, state and local government web resources and services.